createdAt,value
2023-01-02T00:00:54.650Z,16.63
2023-01-02T00:01:52.459Z,16.70
2023-01-02T00:02:49.196Z,26.15
2023-01-02T00:03:46.051Z,23.48
2023-01-02T00:04:42.972Z,19.80
2023-01-02T00:05:39.726Z,17.88
2023-01-02T00:06:37.678Z,14.75
2023-01-02T00:07:34.294Z,16.17
2023-01-02T00:08:31.022Z,17.42
2023-01-02T00:09:27.616Z,19.05
2023-01-02T00:10:24.419Z,21.17
2023-01-02T00:11:21.091Z,14.77
2023-01-02T00:12:17.698Z,19.85
2023-01-02T00:13:14.414Z,18.10
2023-01-02T00:14:11.113Z,25.38
2023-01-02T00:15:08.105Z,26.50
2023-01-02T00:16:05.238Z,25.30
2023-01-02T00:17:01.907Z,26.40
2023-01-02T00:17:58.430Z,21.20
2023-01-02T00:18:55.044Z,21.52
2023-01-02T00:19:51.742Z,21.13
2023-01-02T00:20:48.309Z,20.90
2023-01-02T00:21:44.921Z,20.45
2023-01-02T00:22:41.485Z,17.48
2023-01-02T00:23:38.256Z,18.65
2023-01-02T00:24:34.821Z,17.20
2023-01-02T00:25:34.787Z,16.13
2023-01-02T00:26:31.410Z,18.92
2023-01-02T00:27:28.029Z,20.35
2023-01-02T00:28:24.818Z,17.95
2023-01-02T00:29:21.407Z,18.85
2023-01-02T00:30:18.262Z,16.52
2023-01-02T00:31:14.839Z,18.88
2023-01-02T00:32:11.538Z,18.35
2023-01-02T00:33:08.143Z,17.98
2023-01-02T00:34:04.788Z,16.88
2023-01-02T00:35:01.347Z,19.48
2023-01-02T00:35:57.938Z,22.13
2023-01-02T00:36:54.562Z,15.77
2023-01-02T00:37:52.521Z,23.25
2023-01-02T00:38:49.240Z,21.00
2023-01-02T00:39:45.812Z,18.52
2023-01-02T00:40:42.500Z,21.38
2023-01-02T00:41:39.169Z,18.20
2023-01-02T00:42:35.774Z,17.63
2023-01-02T00:43:32.587Z,20.90
2023-01-02T00:44:29.143Z,18.17
2023-01-02T00:45:25.948Z,15.27
2023-01-02T00:46:23.389Z,25.02
2023-01-02T00:47:20.061Z,21.08
2023-01-02T00:48:16.619Z,19.67
2023-01-02T00:49:13.177Z,19.67
2023-01-02T00:50:09.717Z,19.42
2023-01-02T00:51:06.534Z,22.42
2023-01-02T00:52:03.333Z,26.48
2023-01-02T00:52:59.901Z,27.88
2023-01-02T00:53:56.512Z,27.50
2023-01-02T00:54:53.061Z,32.70
2023-01-02T00:55:49.640Z,31.25
2023-01-02T00:56:46.199Z,22.70
2023-01-02T00:57:42.774Z,25.45
2023-01-02T00:58:39.382Z,31.05
2023-01-02T00:59:35.929Z,21.73
2023-01-02T01:00:32.880Z,29.38
2023-01-02T01:01:29.655Z,27.85
2023-01-02T01:02:26.467Z,26.25
2023-01-02T01:03:23.153Z,23.48
2023-01-02T01:04:19.764Z,27.45
2023-01-02T01:05:16.336Z,25.80
2023-01-02T01:06:14.545Z,31.27
2023-01-02T01:07:11.264Z,22.02
2023-01-02T01:08:08.177Z,23.27
2023-01-02T01:09:04.731Z,27.00
2023-01-02T01:10:01.525Z,24.20
2023-01-02T01:10:58.104Z,34.88
2023-01-02T01:11:55.253Z,26.05
2023-01-02T01:12:52.247Z,23.63
2023-01-02T01:13:48.867Z,27.58
2023-01-02T01:14:45.475Z,33.10
2023-01-02T01:15:42.128Z,27.83
2023-01-02T01:16:38.910Z,25.38
2023-01-02T01:17:35.613Z,28.60
2023-01-02T01:18:32.174Z,29.60
2023-01-02T01:19:36.180Z,26.08
2023-01-02T01:20:32.825Z,27.00
2023-01-02T01:21:29.463Z,29.63
2023-01-02T01:22:26.093Z,29.48
2023-01-02T01:23:23.323Z,23.92
2023-01-02T01:24:19.950Z,27.30
2023-01-02T01:25:16.785Z,29.63
2023-01-02T01:26:13.774Z,28.13
2023-01-02T01:27:10.438Z,24.75
2023-01-02T01:28:07.052Z,38.15
2023-01-02T01:29:03.676Z,44.97
2023-01-02T01:30:00.322Z,31.30
2023-01-02T01:31:27.431Z,37.30
2023-01-02T01:32:24.078Z,36.38
2023-01-02T01:33:20.698Z,32.22
2023-01-02T01:34:17.545Z,37.58
2023-01-02T01:35:14.198Z,38.30
2023-01-02T01:36:23.862Z,39.63
2023-01-02T01:37:20.390Z,40.03
2023-01-02T01:38:16.985Z,35.88
2023-01-02T01:39:13.641Z,33.10
2023-01-02T01:40:10.536Z,40.65
2023-01-02T01:41:08.487Z,30.73
2023-01-02T01:42:05.380Z,35.20
2023-01-02T01:43:01.943Z,32.13
2023-01-02T01:44:00.516Z,26.27
2023-01-02T01:44:57.140Z,33.72
2023-01-02T01:45:53.800Z,34.88
2023-01-02T01:46:50.406Z,34.78
2023-01-02T01:47:51.569Z,25.67
2023-01-02T01:48:53.390Z,31.15
2023-01-02T01:49:58.555Z,38.97
2023-01-02T01:50:58.139Z,37.65
2023-01-02T01:52:00.990Z,30.88
2023-01-02T01:53:03.761Z,34.95
2023-01-02T01:54:07.197Z,31.63
2023-01-02T01:55:12.813Z,24.35
2023-01-02T01:56:12.206Z,25.85
2023-01-02T01:57:33.557Z,23.38
2023-01-02T01:58:41.885Z,30.38
2023-01-02T01:59:40.216Z,29.92
2023-01-02T02:00:37.437Z,28.02
2023-01-02T02:01:34.274Z,29.27
2023-01-02T02:02:33.422Z,28.58
2023-01-02T02:03:32.227Z,31.63
2023-01-02T02:04:28.887Z,33.25
2023-01-02T02:05:29.383Z,28.58
2023-01-02T02:06:25.972Z,27.63
2023-01-02T02:07:23.285Z,31.48
2023-01-02T02:08:37.595Z,27.70
2023-01-02T02:09:49.914Z,24.70
2023-01-02T02:10:47.527Z,15.65
2023-01-02T02:11:44.884Z,19.48
2023-01-02T02:12:41.563Z,25.27
2023-01-02T02:13:38.430Z,21.25
2023-01-02T02:14:34.982Z,19.65
2023-01-02T02:15:43.731Z,24.17
2023-01-02T02:16:46.462Z,22.52
2023-01-02T02:17:56.387Z,25.13
2023-01-02T02:19:11.190Z,24.35
2023-01-02T02:20:33.789Z,19.77
2023-01-02T02:21:54.453Z,16.45
2023-01-02T02:23:18.004Z,21.98
2023-01-02T02:24:40.669Z,24.55
2023-01-02T02:26:13.670Z,28.42
2023-01-02T02:27:28.589Z,23.48
2023-01-02T02:28:43.412Z,27.83
2023-01-02T02:29:50.180Z,20.63
2023-01-02T02:30:59.707Z,20.33
2023-01-02T02:32:15.208Z,22.25
2023-01-02T02:33:30.247Z,22.50
2023-01-02T02:34:45.711Z,21.83
2023-01-02T02:36:19.460Z,19.80
2023-01-02T02:37:25.518Z,13.75
2023-01-02T02:39:00.967Z,13.10
2023-01-02T02:40:26.211Z,15.25
2023-01-02T02:41:36.106Z,16.83
2023-01-02T02:42:48.158Z,18.63
2023-01-02T02:44:32.459Z,21.60
2023-01-02T02:45:54.992Z,15.80
2023-01-02T02:47:09.766Z,15.32
2023-01-02T02:48:28.110Z,20.65
2023-01-02T02:49:27.424Z,21.38
2023-01-02T02:50:42.853Z,22.52
2023-01-02T02:51:56.741Z,23.10
2023-01-02T02:53:09.129Z,21.75
2023-01-02T02:54:12.756Z,24.50
2023-01-02T02:55:17.044Z,23.70
2023-01-02T02:56:16.944Z,22.98
2023-01-02T02:57:15.352Z,24.73
2023-01-02T02:58:14.650Z,30.65
2023-01-02T02:59:11.857Z,27.80
2023-01-02T03:00:14.378Z,23.05
2023-01-02T03:02:17.091Z,36.55
2023-01-02T03:03:19.701Z,31.50
2023-01-02T03:04:21.516Z,32.15
2023-01-02T03:05:48.799Z,38.88
2023-01-02T03:07:02.746Z,36.35
2023-01-02T03:08:10.952Z,56.85
2023-01-02T03:09:51.969Z,25.00
2023-01-02T03:11:01.516Z,26.65
2023-01-02T03:12:06.905Z,45.65
2023-01-02T03:13:41.048Z,55.38
2023-01-02T03:15:05.872Z,54.42
2023-01-02T03:16:30.291Z,47.70
2023-01-02T03:17:26.908Z,40.88
2023-01-02T03:18:29.347Z,42.05
2023-01-02T03:20:47.299Z,35.35
2023-01-02T03:21:58.161Z,44.60
2023-01-02T03:23:04.716Z,35.80
2023-01-02T03:24:08.777Z,30.13
2023-01-02T03:25:10.400Z,33.58
2023-01-02T03:26:07.508Z,32.25
2023-01-02T03:27:09.863Z,38.65
2023-01-02T03:28:09.983Z,29.55
2023-01-02T03:29:41.352Z,30.73
2023-01-02T03:30:41.165Z,44.67
2023-01-02T03:31:40.757Z,51.58
2023-01-02T03:32:43.743Z,40.83
2023-01-02T03:33:44.923Z,38.45
2023-01-02T03:34:45.779Z,40.53
2023-01-02T03:36:04.634Z,46.42
2023-01-02T03:37:08.373Z,44.08
2023-01-02T03:38:10.163Z,38.13
2023-01-02T03:39:18.713Z,36.83
2023-01-02T03:40:20.625Z,45.50
2023-01-02T03:41:38.013Z,39.45
2023-01-02T03:42:40.595Z,37.20
2023-01-02T03:43:40.994Z,45.92
2023-01-02T03:44:56.061Z,37.92
2023-01-02T03:46:04.688Z,34.40
2023-01-02T03:47:41.638Z,37.88
2023-01-02T03:48:41.142Z,43.03
2023-01-02T03:49:44.899Z,47.92
2023-01-02T03:50:50.036Z,44.30
2023-01-02T03:51:46.932Z,52.95
2023-01-02T03:52:43.693Z,39.50
2023-01-02T03:53:41.193Z,31.55
2023-01-02T03:54:38.555Z,27.13
2023-01-02T03:55:40.223Z,25.50
2023-01-02T03:56:55.345Z,26.40
2023-01-02T03:58:20.736Z,23.08
2023-01-02T03:59:43.134Z,24.05
2023-01-02T04:01:05.106Z,24.02
2023-01-02T04:02:24.904Z,22.70
2023-01-02T04:03:26.199Z,16.02
2023-01-02T04:04:37.147Z,18.52
2023-01-02T04:05:45.832Z,29.13
2023-01-02T04:06:48.281Z,26.80
2023-01-02T04:08:56.167Z,15.88
2023-01-02T04:09:53.384Z,16.60
2023-01-02T04:10:58.237Z,15.65
2023-01-02T04:12:00.329Z,21.17
2023-01-02T04:13:02.609Z,18.65
2023-01-02T04:14:03.182Z,20.58
2023-01-02T04:15:05.111Z,24.02
2023-01-02T04:16:04.401Z,22.52
2023-01-02T04:17:04.950Z,20.50
2023-01-02T04:18:08.566Z,26.15
2023-01-02T04:19:12.483Z,17.63
2023-01-02T04:20:14.613Z,22.15
2023-01-02T04:21:17.538Z,16.10
2023-01-02T04:22:32.004Z,19.02
2023-01-02T04:23:42.779Z,20.17
2023-01-02T04:24:44.820Z,22.33
2023-01-02T04:25:47.822Z,19.30
2023-01-02T04:27:08.124Z,13.32
2023-01-02T04:28:25.633Z,16.75
2023-01-02T04:29:22.407Z,19.80
2023-01-02T04:30:19.273Z,17.50
2023-01-02T04:31:15.973Z,16.58
2023-01-02T04:32:20.336Z,15.05
2023-01-02T04:33:19.837Z,17.92
2023-01-02T04:34:18.521Z,21.73
2023-01-02T04:35:19.671Z,22.10
2023-01-02T04:36:16.768Z,21.80
2023-01-02T04:37:28.527Z,33.40
2023-01-02T04:38:25.084Z,32.28
2023-01-02T04:39:24.256Z,29.95
2023-01-02T04:40:23.644Z,26.73
2023-01-02T04:41:29.201Z,25.45
2023-01-02T04:42:25.992Z,21.85
2023-01-02T04:43:22.663Z,25.02
2023-01-02T04:44:19.375Z,20.73
2023-01-02T04:45:16.391Z,29.65
2023-01-02T04:46:13.096Z,31.55
2023-01-02T04:47:09.775Z,30.95
2023-01-02T04:48:06.480Z,33.22
2023-01-02T04:49:03.246Z,29.10
2023-01-02T04:49:59.813Z,32.05
2023-01-02T04:50:56.548Z,35.78
2023-01-02T04:51:53.176Z,33.92
2023-01-02T04:52:49.786Z,29.98
2023-01-02T04:53:50.866Z,23.40
2023-01-02T04:54:47.527Z,24.25
2023-01-02T04:55:44.055Z,28.70
2023-01-02T04:56:40.640Z,23.30
2023-01-02T04:57:38.242Z,25.83
2023-01-02T04:58:34.891Z,35.90
2023-01-02T04:59:31.582Z,32.00
2023-01-02T05:00:28.229Z,31.83
2023-01-02T05:01:24.902Z,35.03
2023-01-02T05:02:21.744Z,34.65
2023-01-02T05:03:18.499Z,34.75
2023-01-02T05:04:15.186Z,26.70
2023-01-02T05:05:11.851Z,36.50
2023-01-02T05:06:09.310Z,35.70
2023-01-02T05:07:06.852Z,36.00
2023-01-02T05:08:03.587Z,40.83
2023-01-02T05:09:00.239Z,34.97
2023-01-02T05:09:56.805Z,36.35
2023-01-02T05:10:53.455Z,34.78
2023-01-02T05:11:50.217Z,28.55
2023-01-02T05:12:46.882Z,32.88
2023-01-02T05:13:44.262Z,33.28
2023-01-02T05:14:40.873Z,37.42
2023-01-02T05:15:37.519Z,31.88
2023-01-02T05:16:34.308Z,39.45
2023-01-02T05:17:35.584Z,34.50
2023-01-02T05:18:32.474Z,32.75
2023-01-02T05:19:29.061Z,47.53
2023-01-02T05:20:25.749Z,39.10
2023-01-02T05:21:40.915Z,45.17
2023-01-02T05:23:00.001Z,32.28
2023-01-02T05:23:58.468Z,41.42
2023-01-02T05:24:55.194Z,36.45
2023-01-02T05:25:51.787Z,32.28
2023-01-02T05:26:48.484Z,37.72
2023-01-02T05:27:45.860Z,45.00
2023-01-02T05:28:42.563Z,48.15
2023-01-02T05:29:39.143Z,40.00
2023-01-02T05:30:38.466Z,35.00
2023-01-02T05:31:35.113Z,39.63
2023-01-02T05:32:31.787Z,36.78
2023-01-02T05:33:28.478Z,39.30
2023-01-02T05:34:25.166Z,38.63
2023-01-02T05:35:25.642Z,42.80
2023-01-02T05:36:26.648Z,40.58
2023-01-02T05:37:23.529Z,38.65
2023-01-02T05:38:20.116Z,40.88
2023-01-02T05:39:16.909Z,47.85
2023-01-02T05:40:13.543Z,46.13
2023-01-02T05:41:10.157Z,46.08
2023-01-02T05:42:06.776Z,40.83
2023-01-02T05:43:03.382Z,38.15
2023-01-02T05:43:59.952Z,45.40
2023-01-02T05:44:56.839Z,43.20
2023-01-02T05:45:53.509Z,38.78
2023-01-02T05:46:50.142Z,34.38
2023-01-02T05:47:46.748Z,34.60
2023-01-02T05:48:44.281Z,38.97
2023-01-02T05:49:40.983Z,38.40
2023-01-02T05:50:37.646Z,38.83
2023-01-02T05:51:34.677Z,46.08
2023-01-02T05:52:31.281Z,38.75
2023-01-02T05:53:28.040Z,46.33
2023-01-02T05:54:24.720Z,51.45
2023-01-02T05:55:21.342Z,54.00
2023-01-02T05:56:18.818Z,51.13
2023-01-02T05:57:16.033Z,38.83
2023-01-02T05:58:12.604Z,41.30
2023-01-02T05:59:09.280Z,48.83
2023-01-02T06:00:06.321Z,49.28
2023-01-02T06:01:11.731Z,44.33
2023-01-02T06:02:08.497Z,44.85
2023-01-02T06:03:05.314Z,36.55
2023-01-02T06:04:02.426Z,38.42
2023-01-02T06:04:59.113Z,54.65
2023-01-02T06:05:55.763Z,50.85
2023-01-02T06:06:52.329Z,56.75
2023-01-02T06:07:48.899Z,41.05
2023-01-02T06:08:45.476Z,48.35
2023-01-02T06:09:42.301Z,44.15
2023-01-02T06:10:38.925Z,52.03
2023-01-02T06:11:36.587Z,58.65
2023-01-02T06:12:33.231Z,68.57
2023-01-02T06:13:30.594Z,67.55
2023-01-02T06:14:27.535Z,60.40
2023-01-02T06:15:24.777Z,55.50
2023-01-02T06:16:22.455Z,51.03
2023-01-02T06:17:19.138Z,56.03
2023-01-02T06:18:15.736Z,50.42
2023-01-02T06:19:12.317Z,51.15
2023-01-02T06:20:09.584Z,63.55
2023-01-02T06:21:12.228Z,67.10
2023-01-02T06:22:08.849Z,55.70
2023-01-02T06:23:05.436Z,60.97
2023-01-02T06:24:02.132Z,52.30
2023-01-02T06:24:58.683Z,61.95
2023-01-02T06:25:55.769Z,47.83
2023-01-02T06:26:52.409Z,47.33
2023-01-02T06:27:49.012Z,54.95
2023-01-02T06:28:49.012Z,49.45
2023-01-02T06:29:45.547Z,39.17
2023-01-02T06:30:42.153Z,46.05
2023-01-02T06:31:39.979Z,40.17
2023-01-02T06:32:37.196Z,42.95
2023-01-02T06:33:33.888Z,40.47
2023-01-02T06:34:30.476Z,42.25
2023-01-02T06:35:27.172Z,43.30
2023-01-02T06:36:24.255Z,38.45
2023-01-02T06:37:20.976Z,36.30
2023-01-02T06:38:17.599Z,34.15
2023-01-02T06:39:14.226Z,36.60
2023-01-02T06:40:13.981Z,39.40
2023-01-02T06:41:10.677Z,39.92
2023-01-02T06:42:07.197Z,44.45
2023-01-02T06:43:03.811Z,46.10
2023-01-02T06:44:00.402Z,49.33
2023-01-02T06:44:56.995Z,42.47
2023-01-02T06:45:53.853Z,46.15
2023-01-02T06:46:50.526Z,67.47
2023-01-02T06:47:47.125Z,83.40
2023-01-02T06:48:44.192Z,87.53
2023-01-02T06:49:40.811Z,91.57
2023-01-02T06:50:37.414Z,80.75
2023-01-02T06:51:34.001Z,76.88
2023-01-02T06:52:30.568Z,63.92
2023-01-02T06:53:27.321Z,58.13
2023-01-02T06:54:23.933Z,56.83
2023-01-02T06:55:20.639Z,48.75
2023-01-02T06:56:18.584Z,57.25
2023-01-02T06:57:15.243Z,81.68
2023-01-02T06:58:17.580Z,63.85
2023-01-02T06:59:15.918Z,61.67
2023-01-02T07:00:13.176Z,70.32
2023-01-02T07:01:13.780Z,136.73
2023-01-02T07:02:13.908Z,140.18
2023-01-02T07:03:10.617Z,117.72
2023-01-02T07:04:07.219Z,78.65
2023-01-02T07:05:04.330Z,75.22
2023-01-02T07:06:06.776Z,107.60
2023-01-02T07:08:00.962Z,80.75
2023-01-02T07:08:57.526Z,66.25
2023-01-02T07:09:54.090Z,62.45
2023-01-02T07:10:53.041Z,75.40
2023-01-02T07:11:50.018Z,85.40
2023-01-02T07:12:46.626Z,63.50
2023-01-02T07:13:44.316Z,59.47
2023-01-02T07:14:40.952Z,128.60
2023-01-02T07:15:37.680Z,171.55
2023-01-02T07:16:34.349Z,178.15
2023-01-02T07:17:32.440Z,133.30
2023-01-02T07:18:29.048Z,97.88
2023-01-02T07:19:25.681Z,65.53
2023-01-02T07:20:22.291Z,48.15
2023-01-02T07:21:18.909Z,48.97
2023-01-02T07:22:15.449Z,44.38
2023-01-02T07:23:12.097Z,54.95
2023-01-02T07:24:17.759Z,115.38
2023-01-02T07:25:14.356Z,154.18
2023-01-02T07:26:11.671Z,188.88
2023-01-02T07:27:08.300Z,138.60
2023-01-02T07:28:05.021Z,213.57
2023-01-02T07:29:01.710Z,233.68
2023-01-02T07:29:58.434Z,204.27
2023-01-02T07:30:59.700Z,164.98
2023-01-02T07:31:56.389Z,82.30
2023-01-02T07:32:53.609Z,75.32
2023-01-02T07:33:50.333Z,101.82
2023-01-02T07:34:46.974Z,84.57
2023-01-02T07:35:44.237Z,72.25
2023-01-02T07:36:40.833Z,68.28
2023-01-02T07:37:37.597Z,47.50
2023-01-02T07:38:35.187Z,48.83
2023-01-02T07:39:31.741Z,55.63
2023-01-02T07:40:32.085Z,43.78
2023-01-02T07:41:29.135Z,106.10
2023-01-02T07:42:25.728Z,246.43
2023-01-02T07:43:22.424Z,188.57
2023-01-02T07:44:19.067Z,115.88
2023-01-02T07:45:15.780Z,86.32
2023-01-02T07:46:14.289Z,81.38
2023-01-02T07:47:10.952Z,73.00
2023-01-02T07:48:07.502Z,62.78
2023-01-02T07:49:04.092Z,46.88
2023-01-02T07:50:00.702Z,64.60
2023-01-02T07:51:05.189Z,103.03
2023-01-02T07:52:01.800Z,167.27
2023-01-02T07:52:58.431Z,86.10
2023-01-02T07:53:55.613Z,65.45
2023-01-02T07:54:52.206Z,48.90
2023-01-02T07:55:54.375Z,49.70
2023-01-02T07:56:52.138Z,36.05
2023-01-02T07:57:48.736Z,79.50
2023-01-02T07:58:45.341Z,162.80
2023-01-02T07:59:44.947Z,354.13
2023-01-02T08:00:41.528Z,179.20
2023-01-02T08:01:38.249Z,160.20
2023-01-02T08:02:34.968Z,273.05
2023-01-02T08:03:31.963Z,230.85
2023-01-02T08:04:28.701Z,141.05
2023-01-02T08:05:25.577Z,70.68
2023-01-02T08:06:22.277Z,56.28
2023-01-02T08:07:19.035Z,46.22
2023-01-02T08:08:15.627Z,47.53
2023-01-02T08:09:12.187Z,52.90
2023-01-02T08:10:08.914Z,51.38
2023-01-02T08:11:11.678Z,62.75
2023-01-02T08:12:08.240Z,45.25
2023-01-02T08:13:08.084Z,46.35
2023-01-02T08:14:05.192Z,43.90
2023-01-02T08:15:02.029Z,40.72
2023-01-02T08:16:20.332Z,36.50
2023-01-02T08:17:16.985Z,34.35
2023-01-02T08:18:13.601Z,63.60
2023-01-02T08:19:10.254Z,90.03
2023-01-02T08:20:08.526Z,71.28
2023-01-02T08:21:06.219Z,101.82
2023-01-02T08:22:02.803Z,71.47
2023-01-02T08:22:59.351Z,59.85
2023-01-02T08:23:55.981Z,70.75
2023-01-02T08:24:52.615Z,72.28
2023-01-02T08:25:54.080Z,301.33
2023-01-02T08:26:53.961Z,198.32
2023-01-02T08:27:50.563Z,130.80
2023-01-02T08:28:47.211Z,87.43
2023-01-02T08:29:43.957Z,60.85
2023-01-02T08:30:41.266Z,61.75
2023-01-02T08:31:43.471Z,125.70
2023-01-02T08:32:40.864Z,84.15
2023-01-02T08:33:37.653Z,74.03
2023-01-02T08:34:35.119Z,77.80
2023-01-02T08:35:38.512Z,65.65
2023-01-02T08:36:35.760Z,70.47
2023-01-02T08:37:32.372Z,63.80
2023-01-02T08:38:29.008Z,53.95
2023-01-02T08:39:25.633Z,78.90
2023-01-02T08:40:22.555Z,81.47
2023-01-02T08:41:36.947Z,78.20
2023-01-02T08:42:33.579Z,261.20
2023-01-02T08:43:34.399Z,273.80
2023-01-02T08:44:30.970Z,104.38
2023-01-02T08:45:28.072Z,174.48
2023-01-02T08:46:24.705Z,95.43
2023-01-02T08:47:21.309Z,62.88
2023-01-02T08:48:21.017Z,74.03
2023-01-02T08:49:18.487Z,73.60
2023-01-02T08:50:15.154Z,46.88
2023-01-02T08:51:11.796Z,57.22
2023-01-02T08:52:08.437Z,53.58
2023-01-02T08:53:10.777Z,47.50
2023-01-02T08:54:09.333Z,74.38
2023-01-02T08:55:06.559Z,47.95
2023-01-02T08:56:29.224Z,72.40
2023-01-02T08:57:25.867Z,100.82
2023-01-02T08:58:22.531Z,95.07
2023-01-02T08:59:19.539Z,64.60
2023-01-02T09:00:16.471Z,54.78
2023-01-02T09:01:13.107Z,73.75
2023-01-02T09:02:14.363Z,50.10
2023-01-02T09:03:11.158Z,53.10
2023-01-02T09:04:12.342Z,179.55
2023-01-02T09:05:09.902Z,395.33
2023-01-02T09:06:06.534Z,182.38
2023-01-02T09:07:03.170Z,67.82
2023-01-02T09:08:01.869Z,131.88
2023-01-02T09:08:59.660Z,97.40
2023-01-02T09:09:56.256Z,72.95
2023-01-02T09:10:52.924Z,85.70
2023-01-02T09:11:51.983Z,266.50
2023-01-02T09:12:48.630Z,158.20
2023-01-02T09:13:45.346Z,111.03
2023-01-02T09:14:42.067Z,297.40
2023-01-02T09:15:38.769Z,106.28
2023-01-02T09:16:35.427Z,115.75
2023-01-02T09:17:31.981Z,204.40
2023-01-02T09:18:29.682Z,87.47
2023-01-02T09:19:27.018Z,77.82
2023-01-02T09:20:23.966Z,298.63
2023-01-02T09:21:20.560Z,301.05
2023-01-02T09:22:17.193Z,185.95
2023-01-02T09:23:13.809Z,278.40
2023-01-02T09:24:10.852Z,454.02
2023-01-02T09:25:08.003Z,120.43
2023-01-02T09:26:10.947Z,115.45
2023-01-02T09:27:07.539Z,47.72
2023-01-02T09:28:04.311Z,47.28
2023-01-02T09:29:01.117Z,185.90
2023-01-02T09:29:57.759Z,152.48
2023-01-02T09:30:55.043Z,110.95
2023-01-02T09:31:51.716Z,94.22
2023-01-02T09:32:50.734Z,173.23
2023-01-02T09:33:48.274Z,127.43
2023-01-02T09:34:50.301Z,65.30
2023-01-02T09:35:46.878Z,79.32
2023-01-02T09:36:43.531Z,55.13
2023-01-02T09:37:40.161Z,116.00
2023-01-02T09:38:37.052Z,151.45
2023-01-02T09:39:33.621Z,121.75
2023-01-02T09:40:32.018Z,71.25
2023-01-02T09:41:51.740Z,105.45
2023-01-02T09:42:51.770Z,62.00
2023-01-02T09:44:04.615Z,51.05
2023-01-02T09:45:08.569Z,62.55
2023-01-02T09:46:13.592Z,66.25
2023-01-02T09:47:25.903Z,47.03
2023-01-02T09:48:22.601Z,68.83
2023-01-02T09:49:26.239Z,70.90
2023-01-02T09:50:28.004Z,52.15
2023-01-02T09:51:24.634Z,91.85
2023-01-02T09:52:38.296Z,121.55
2023-01-02T09:53:35.396Z,88.43
2023-01-02T09:54:33.791Z,64.07
2023-01-02T09:55:43.415Z,112.40
2023-01-02T09:56:42.417Z,116.55
2023-01-02T09:58:06.100Z,138.40
2023-01-02T10:00:17.101Z,82.85
2023-01-02T10:01:24.804Z,91.18
2023-01-02T10:02:40.252Z,117.88
2023-01-02T10:04:14.149Z,147.30
2023-01-02T10:05:28.976Z,51.72
2023-01-02T10:06:35.740Z,83.03
2023-01-02T10:07:47.884Z,57.92
2023-01-02T10:08:50.473Z,145.20
2023-01-02T10:09:59.896Z,129.52
2023-01-02T10:11:08.605Z,87.40
2023-01-02T10:12:25.305Z,110.43
2023-01-02T10:14:08.360Z,98.97
2023-01-02T10:14:59.567Z,76.03
2023-01-02T10:16:00.592Z,66.55
2023-01-02T10:17:00.461Z,83.68
2023-01-02T10:18:15.278Z,103.75
2023-01-02T10:19:20.145Z,113.40
2023-01-02T10:20:45.688Z,186.63
2023-01-02T10:21:45.379Z,100.07
2023-01-02T10:22:51.448Z,99.10
2023-01-02T10:24:14.219Z,73.88
2023-01-02T10:25:26.821Z,83.65
2023-01-02T10:26:28.281Z,80.43
2023-01-02T10:27:32.921Z,74.55
2023-01-02T10:28:49.352Z,107.22
2023-01-02T10:29:54.429Z,91.60
2023-01-02T10:31:05.408Z,86.70
2023-01-02T10:32:15.308Z,70.40
2023-01-02T10:33:32.389Z,99.60
2023-01-02T10:34:45.314Z,86.78
2023-01-02T10:35:45.790Z,85.05
2023-01-02T10:36:44.108Z,99.93
2023-01-02T10:37:40.747Z,64.00
2023-01-02T10:38:39.448Z,72.60
2023-01-02T10:39:36.098Z,136.32
2023-01-02T10:40:33.837Z,161.00
2023-01-02T10:41:31.613Z,96.13
2023-01-02T10:42:31.225Z,157.55
2023-01-02T10:43:29.398Z,129.90
2023-01-02T10:44:29.975Z,243.55
2023-01-02T10:45:26.724Z,263.38
2023-01-02T10:46:23.453Z,304.90
2023-01-02T10:47:37.849Z,279.15
2023-01-02T10:48:37.396Z,245.93
2023-01-02T10:49:37.803Z,179.65
2023-01-02T10:50:42.021Z,178.60
2023-01-02T10:51:45.678Z,114.63
2023-01-02T10:53:04.765Z,143.32
2023-01-02T10:54:09.576Z,158.05
2023-01-02T10:55:06.557Z,98.30
2023-01-02T10:56:05.673Z,78.57
2023-01-02T10:57:02.300Z,89.63
2023-01-02T10:58:05.252Z,148.57
2023-01-02T10:59:02.907Z,125.40
2023-01-02T11:00:01.325Z,111.03
2023-01-02T11:01:05.945Z,124.82
2023-01-02T11:02:02.686Z,157.38
2023-01-02T11:03:12.358Z,72.35
2023-01-02T11:04:13.132Z,68.70
2023-01-02T11:05:20.200Z,67.68
2023-01-02T11:06:28.226Z,62.53
2023-01-02T11:07:27.096Z,69.97
2023-01-02T11:08:34.339Z,87.95
2023-01-02T11:09:35.980Z,166.05
2023-01-02T11:10:35.092Z,137.00
2023-01-02T11:11:32.631Z,131.07
2023-01-02T11:12:29.245Z,161.52
2023-01-02T11:13:25.817Z,261.33
2023-01-02T11:14:34.100Z,212.60
2023-01-02T11:15:34.703Z,102.22
2023-01-02T11:16:33.189Z,103.75
2023-01-02T11:17:30.718Z,79.88
2023-01-02T11:18:31.160Z,105.82
2023-01-02T11:19:30.026Z,104.38
2023-01-02T11:20:33.784Z,152.15
2023-01-02T11:21:33.149Z,117.65
2023-01-02T11:22:36.259Z,95.05
2023-01-02T11:23:39.804Z,92.03
2023-01-02T11:25:05.630Z,83.25
2023-01-02T11:26:04.467Z,71.30
2023-01-02T11:27:02.788Z,82.18
2023-01-02T11:28:00.905Z,95.18
2023-01-02T11:29:07.142Z,70.43
2023-01-02T11:30:09.657Z,130.88
2023-01-02T11:31:10.081Z,112.32
2023-01-02T11:32:06.914Z,93.03
2023-01-02T11:33:19.384Z,110.63
2023-01-02T11:34:22.499Z,107.03
2023-01-02T11:35:36.450Z,79.22
2023-01-02T11:36:33.334Z,64.32
2023-01-02T11:37:29.974Z,97.63
2023-01-02T11:38:39.843Z,67.38
2023-01-02T11:39:36.631Z,100.20
2023-01-02T11:40:33.692Z,90.93
2023-01-02T11:42:08.159Z,64.47
2023-01-02T11:43:29.334Z,158.77
2023-01-02T11:44:31.662Z,78.70
2023-01-02T11:45:30.788Z,102.03
2023-01-02T11:46:29.577Z,87.05
2023-01-02T11:47:32.868Z,78.80
2023-01-02T11:48:29.777Z,80.38
2023-01-02T11:49:31.908Z,72.93
2023-01-02T11:50:31.726Z,67.30
2023-01-02T11:51:29.974Z,66.00
2023-01-02T11:52:34.849Z,92.05
2023-01-02T11:53:40.647Z,82.93
2023-01-02T11:54:44.230Z,65.93
2023-01-02T11:55:43.827Z,67.82
2023-01-02T11:56:44.203Z,60.78
2023-01-02T11:57:49.982Z,100.15
2023-01-02T11:59:00.608Z,79.15
2023-01-02T12:00:01.463Z,75.25
2023-01-02T12:01:22.722Z,61.72
2023-01-02T12:02:36.469Z,70.05
2023-01-02T12:03:34.746Z,94.97
2023-01-02T12:04:31.795Z,64.57
2023-01-02T12:05:37.323Z,51.20
2023-01-02T12:06:39.701Z,51.72
2023-01-02T12:07:44.266Z,58.53
2023-01-02T12:09:06.959Z,91.85
2023-01-02T12:10:50.395Z,52.42
2023-01-02T12:11:46.938Z,71.57
2023-01-02T12:12:43.429Z,190.50
2023-01-02T12:13:58.725Z,63.50
2023-01-02T12:15:07.106Z,65.68
2023-01-02T12:16:41.990Z,65.43
2023-01-02T12:17:53.448Z,66.65
2023-01-02T12:19:02.419Z,62.00
2023-01-02T12:20:21.078Z,54.78
2023-01-02T12:21:57.120Z,107.47
2023-01-02T12:23:11.227Z,55.90
2023-01-02T12:24:07.806Z,38.42
2023-01-02T12:25:28.799Z,51.58
2023-01-02T12:26:42.078Z,52.53
2023-01-02T12:27:46.807Z,67.30
2023-01-02T12:29:05.252Z,53.75
2023-01-02T12:30:15.219Z,56.05
2023-01-02T12:31:30.143Z,49.78
2023-01-02T12:32:54.758Z,48.13
2023-01-02T12:34:23.694Z,44.72
2023-01-02T12:35:56.794Z,40.55
2023-01-02T12:37:23.548Z,48.35
2023-01-02T12:38:33.071Z,45.13
2023-01-02T12:40:26.873Z,55.70
2023-01-02T12:41:33.385Z,46.45
2023-01-02T12:43:09.178Z,54.25
2023-01-02T12:44:17.615Z,55.80
2023-01-02T12:45:35.259Z,64.00
2023-01-02T12:46:40.968Z,80.60
2023-01-02T12:47:47.202Z,73.13
2023-01-02T12:49:11.301Z,49.78
2023-01-02T12:50:28.143Z,175.13
2023-01-02T12:51:47.575Z,132.23
2023-01-02T12:53:03.197Z,137.43
2023-01-02T12:54:18.721Z,247.55
2023-01-02T12:55:45.279Z,220.32
2023-01-02T12:57:02.309Z,179.65
2023-01-02T12:58:14.470Z,254.38
2023-01-02T12:59:30.063Z,132.95
2023-01-02T13:00:48.499Z,186.25
2023-01-02T13:02:23.988Z,101.82
2023-01-02T13:03:22.534Z,247.90
2023-01-02T13:04:29.452Z,124.28
2023-01-02T13:05:32.944Z,143.45
2023-01-02T13:06:43.526Z,125.35
2023-01-02T13:08:13.141Z,79.35
2023-01-02T13:09:25.177Z,301.33
2023-01-02T13:10:25.139Z,205.27
2023-01-02T13:11:30.154Z,106.05
2023-01-02T13:12:30.175Z,62.20
2023-01-02T13:13:33.555Z,65.75
2023-01-02T13:14:35.979Z,57.97
2023-01-02T13:15:36.303Z,48.47
2023-01-02T13:16:35.220Z,56.47
2023-01-02T13:17:40.892Z,76.13
2023-01-02T13:19:00.678Z,72.57
2023-01-02T13:20:15.755Z,133.57
2023-01-02T13:21:32.910Z,110.15
2023-01-02T13:22:48.835Z,121.05